Time;durP1;ratioP1;P1;durP2;ratioP2;P2;SDS_P1;SDS_P2;PMS_P1;PMS_P2;Temp;Humidity;BMP_temperature;BMP_pressure;BME280_temperature;BME280_humidity;BME280_pressure;Samples;Min_cycle;Max_cycle;Signal;HPM_P1;HPM_P2
2023/06/15 00:01:29;;;;;;;4.25;2.83;;;19.00;99.90;;;;;;5059969;28;20054;-61
2023/06/15 00:03:54;;;;;;;4.07;2.60;;;19.00;99.90;;;;;;5055241;28;20071;-61
2023/06/15 00:06:20;;;;;;;7.53;3.40;;;19.00;99.90;;;;;;5059717;28;20025;-61
2023/06/15 00:08:46;;;;;;;6.68;3.20;;;19.00;99.90;;;;;;5060924;28;20039;-61
2023/06/15 00:11:11;;;;;;;6.78;3.30;;;19.00;99.90;;;;;;5058258;28;20089;-61
2023/06/15 00:13:37;;;;;;;9.82;3.35;;;18.90;1.00;;;;;;5056377;28;20044;-61
2023/06/15 00:16:03;;;;;;;6.45;3.40;;;18.80;1.00;;;;;;5056080;28;20048;-61
2023/06/15 00:18:28;;;;;;;4.57;3.22;;;18.70;99.90;;;;;;5061237;28;20140;-61
2023/06/15 00:20:55;;;;;;;6.25;3.90;;;18.80;99.90;;;;;;5059514;28;20082;-61
2023/06/15 00:23:26;;;;;;;8.45;3.30;;;18.60;99.90;;;;;;5061445;28;20067;-61
2023/06/15 00:25:55;;;;;;;5.40;3.60;;;18.60;1.00;;;;;;5059615;28;20498;-61
2023/06/15 00:28:21;;;;;;;6.63;3.30;;;18.40;1.00;;;;;;5054380;28;20043;-61
2023/06/15 00:30:46;;;;;;;7.00;4.35;;;18.20;99.90;;;;;;5059870;28;20037;-61
2023/06/15 00:33:12;;;;;;;4.72;3.35;;;18.10;1.00;;;;;;5062536;28;20067;-61
2023/06/15 00:35:37;;;;;;;9.13;4.20;;;18.00;1.00;;;;;;5063942;28;20075;-61
2023/06/15 00:38:03;;;;;;;7.38;4.00;;;17.80;99.90;;;;;;5065951;28;20061;-61
2023/06/15 00:40:28;;;;;;;6.88;4.05;;;17.70;1.00;;;;;;5061902;28;20040;-61
2023/06/15 00:42:54;;;;;;;9.57;3.80;;;17.70;99.90;;;;;;5066548;28;20040;-61
2023/06/15 00:45:20;;;;;;;7.20;3.80;;;17.60;16.60;;;;;;5063247;28;20044;-61
2023/06/15 00:47:46;;;;;;;7.85;3.88;;;17.50;99.90;;;;;;5065153;28;20060;-61
2023/06/15 00:50:19;;;;;;;9.65;4.13;;;17.50;99.90;;;;;;5065120;28;20086;-61
2023/06/15 00:52:48;;;;;;;9.00;4.20;;;17.40;99.90;;;;;;5063831;28;20040;-61
2023/06/15 00:55:14;;;;;;;5.72;3.70;;;17.40;99.90;;;;;;5064428;28;20071;-61
2023/06/15 00:57:44;;;;;;;5.97;3.75;;;17.30;99.90;;;;;;5061408;28;20629;-61
2023/06/15 01:00:12;;;;;;;6.90;4.05;;;17.20;99.90;;;;;;5059957;28;20033;-61
2023/06/15 01:02:39;;;;;;;5.70;3.65;;;17.20;99.90;;;;;;5062759;28;20103;-61
2023/06/15 01:05:05;;;;;;;5.75;4.00;;;17.20;99.90;;;;;;5062666;28;20039;-61
2023/06/15 01:07:35;;;;;;;8.88;4.07;;;17.10;99.90;;;;;;5068009;28;20032;-61
2023/06/15 01:10:02;;;;;;;5.43;3.85;;;17.00;99.90;;;;;;5060398;28;20178;-61
2023/06/15 01:12:29;;;;;;;8.27;4.03;;;17.10;1.00;;;;;;5064658;28;20042;-61
2023/06/15 01:14:55;;;;;;;6.65;4.05;;;17.90;99.90;;;;;;5066195;28;20098;-61
2023/06/15 01:17:23;;;;;;;8.20;4.18;;;16.90;99.90;;;;;;5066234;28;20033;-61
2023/06/15 01:20:04;;;;;;;6.07;4.22;;;16.90;99.90;;;;;;5067541;28;20107;-61
2023/06/15 01:22:58;;;;;;;7.05;4.20;;;16.80;99.90;;;;;;5061991;28;20028;-61
2023/06/15 01:25:33;;;;;;;;;;;16.80;99.90;;;;;;5063497;28;20032;-61
2023/06/15 01:28:02;;;;;;;5.45;3.80;;;16.80;99.90;;;;;;5060114;28;19912;-61
2023/06/15 01:30:32;;;;;;;7.05;3.92;;;16.80;99.90;;;;;;5063924;28;20039;-61
2023/06/15 01:32:58;;;;;;;9.32;3.88;;;16.70;99.90;;;;;;5063599;28;20048;-61
2023/06/15 01:35:24;;;;;;;8.77;4.18;;;16.60;99.90;;;;;;5064271;28;20214;-61
2023/06/15 01:37:49;;;;;;;7.15;3.97;;;17.00;99.90;;;;;;5065661;28;20127;-61
2023/06/15 01:40:16;;;;;;;10.90;4.15;;;16.60;99.90;;;;;;5061761;28;20396;-61
2023/06/15 01:42:42;;;;;;;7.57;3.97;;;17.40;99.90;;;;;;5065380;28;20496;-61
2023/06/15 01:45:10;;;;;;;8.30;3.97;;;16.50;99.90;;;;;;5065684;28;20051;-61
2023/06/15 01:47:37;;;;;;;6.05;3.97;;;16.40;99.90;;;;;;5065220;28;20052;-61
2023/06/15 01:50:04;;;;;;;6.65;3.72;;;16.40;99.90;;;;;;5062724;28;20049;-60
2023/06/15 01:52:30;;;;;;;7.63;4.07;;;16.40;99.90;;;;;;5066131;28;20417;-61
2023/06/15 01:54:55;;;;;;;7.93;4.18;;;16.40;99.90;;;;;;5065703;28;20106;-61
2023/06/15 01:57:22;;;;;;;6.13;3.90;;;16.50;99.90;;;;;;5063553;28;20040;-62
2023/06/15 01:59:47;;;;;;;6.68;4.43;;;16.50;99.90;;;;;;5066177;28;20044;-62
2023/06/15 02:02:13;;;;;;;7.60;4.05;;;16.30;99.90;;;;;;5067213;28;20036;-61
2023/06/15 02:04:39;;;;;;;4.75;3.60;;;16.30;99.90;;;;;;5066395;28;20037;-61
2023/06/15 02:07:04;;;;;;;6.60;3.85;;;16.20;99.90;;;;;;5066351;28;20105;-61
2023/06/15 02:09:30;;;;;;;6.45;4.35;;;16.10;99.90;;;;;;5056257;28;20037;-61
2023/06/15 02:11:57;;;;;;;6.25;4.10;;;16.20;99.90;;;;;;5064476;28;20071;-62
2023/06/15 02:14:23;;;;;;;5.53;4.43;;;16.20;99.90;;;;;;5064144;28;20615;-61
2023/06/15 02:16:49;;;;;;;5.28;3.92;;;16.20;99.90;;;;;;5064185;28;20124;-61
2023/06/15 02:19:21;;;;;;;7.78;4.00;;;16.00;99.90;;;;;;5063276;28;20511;-61
2023/06/15 02:21:48;;;;;;;7.38;4.07;;;15.60;99.90;;;;;;5066189;28;20035;-61
2023/06/15 02:24:13;;;;;;;7.78;4.13;;;16.20;99.90;;;;;;5062531;28;20044;-61
2023/06/15 02:26:40;;;;;;;4.93;3.83;;;16.10;99.90;;;;;;5064983;28;20059;-61
2023/06/15 02:29:06;;;;;;;9.60;4.28;;;16.10;99.90;;;;;;5062470;28;20041;-61
2023/06/15 02:31:31;;;;;;;6.43;3.80;;;16.00;99.90;;;;;;5063297;28;20451;-61
2023/06/15 02:33:57;;;;;;;5.75;3.83;;;16.20;99.90;;;;;;5067294;28;20310;-61
2023/06/15 02:36:23;;;;;;;5.75;3.80;;;15.10;99.90;;;;;;5065510;28;20033;-61
2023/06/15 02:38:49;;;;;;;7.68;4.45;;;15.90;99.90;;;;;;5065906;28;20032;-62
2023/06/15 02:41:14;;;;;;;9.35;4.20;;;15.80;99.90;;;;;;5060153;28;20059;-61
2023/06/15 02:43:40;;;;;;;5.93;4.22;;;15.70;99.90;;;;;;5065762;28;20581;-62
2023/06/15 02:46:06;;;;;;;5.97;4.13;;;15.70;99.90;;;;;;5063367;28;20032;-61
2023/06/15 02:48:32;;;;;;;7.85;4.30;;;15.80;99.90;;;;;;5055375;28;20037;-61
2023/06/15 02:50:58;;;;;;;6.65;4.20;;;15.50;99.90;;;;;;5060898;28;20500;-61
2023/06/15 02:53:24;;;;;;;8.02;4.32;;;15.70;99.90;;;;;;5064132;28;20040;-62
2023/06/15 02:55:51;;;;;;;7.82;4.47;;;15.50;99.90;;;;;;5062759;28;20025;-61
2023/06/15 02:58:20;;;;;;;7.53;4.53;;;15.50;99.90;;;;;;5063876;28;20093;-61
2023/06/15 03:00:50;;;;;;;8.77;4.60;;;15.40;99.90;;;;;;5064708;28;20020;-61
2023/06/15 03:03:22;;;;;;;9.45;4.78;;;15.40;99.90;;;;;;5059894;28;20048;-61
2023/06/15 03:05:51;;;;;;;9.55;4.70;;;15.40;99.90;;;;;;5063720;28;20040;-61
2023/06/15 03:08:18;;;;;;;9.40;4.45;;;15.50;99.90;;;;;;5069312;28;20039;-61
2023/06/15 03:10:44;;;;;;;9.73;5.00;;;15.60;99.90;;;;;;5063641;28;20033;-61
2023/06/15 03:13:10;;;;;;;7.68;4.25;;;15.60;99.90;;;;;;5064012;28;20029;-61
2023/06/15 03:15:36;;;;;;;7.88;4.47;;;15.50;99.90;;;;;;5062709;28;20433;-61
2023/06/15 03:18:04;;;;;;;7.93;4.80;;;15.50;99.90;;;;;;5063758;28;20213;-60
2023/06/15 03:20:33;;;;;;;6.75;4.45;;;15.40;99.90;;;;;;5060592;28;20118;-61
2023/06/15 03:23:00;;;;;;;8.02;4.82;;;15.30;99.90;;;;;;5062247;28;20492;-61
2023/06/15 03:25:26;;;;;;;10.73;5.50;;;15.30;99.90;;;;;;5063899;28;20568;-61
2023/06/15 03:27:59;;;;;;;11.52;5.20;;;15.30;99.90;;;;;;5064742;28;20040;-61
2023/06/15 03:30:25;;;;;;;10.02;5.25;;;15.30;99.90;;;;;;5057399;28;20040;-61
2023/06/15 03:32:53;;;;;;;9.90;5.45;;;15.40;99.90;;;;;;5064276;28;20041;-61
2023/06/15 03:35:20;;;;;;;10.65;5.43;;;15.30;99.90;;;;;;5062803;28;20049;-61
2023/06/15 03:37:45;;;;;;;9.70;5.18;;;15.30;99.90;;;;;;5061449;28;20037;-61
2023/06/15 03:40:11;;;;;;;11.27;5.60;;;15.30;99.90;;;;;;5060965;28;20234;-61
2023/06/15 03:42:37;;;;;;;8.38;5.40;;;15.30;99.90;;;;;;5062935;28;20547;-61
2023/06/15 03:45:04;;;;;;;7.47;5.45;;;15.30;99.90;;;;;;5058707;28;20025;-61
2023/06/15 03:47:31;;;;;;;12.32;5.30;;;15.30;99.90;;;;;;5059603;28;20524;-61
2023/06/15 03:49:57;;;;;;;11.90;5.15;;;15.30;99.90;;;;;;5057431;28;20063;-61
2023/06/15 03:52:22;;;;;;;10.15;5.70;;;15.30;99.90;;;;;;5062279;28;20036;-61
2023/06/15 03:54:48;;;;;;;10.48;5.50;;;15.30;99.90;;;;;;5060531;28;20037;-61
2023/06/15 03:57:13;;;;;;;10.27;5.35;;;15.30;99.90;;;;;;5063301;28;20036;-61
2023/06/15 03:59:39;;;;;;;10.15;5.38;;;15.30;99.90;;;;;;5061815;28;20467;-61
2023/06/15 04:02:05;;;;;;;7.55;5.18;;;15.30;99.90;;;;;;5063724;28;20037;-61
2023/06/15 04:04:32;;;;;;;10.23;5.53;;;15.30;99.90;;;;;;5062099;28;20436;-61
2023/06/15 04:06:57;;;;;;;8.35;5.32;;;15.30;99.90;;;;;;5054815;28;20045;-61
2023/06/15 04:09:23;;;;;;;11.50;6.05;;;15.30;99.90;;;;;;5059809;28;20044;-61
2023/06/15 04:11:49;;;;;;;9.05;5.40;;;15.30;99.90;;;;;;5054281;28;20067;-61
2023/06/15 04:14:15;;;;;;;13.85;6.20;;;15.40;99.90;;;;;;5059477;28;20059;-61
2023/06/15 04:16:40;;;;;;;11.48;5.95;;;15.60;99.90;;;;;;5060680;28;20110;-61
2023/06/15 04:19:09;;;;;;;10.15;5.75;;;15.60;99.90;;;;;;5059408;28;20036;-61
2023/06/15 04:21:36;;;;;;;10.00;6.03;;;15.60;99.90;;;;;;5063285;28;20033;-61
2023/06/15 04:24:02;;;;;;;8.13;5.72;;;15.70;99.90;;;;;;5057973;28;20055;-60
2023/06/15 04:26:28;;;;;;;10.85;5.57;;;15.60;99.90;;;;;;5062892;28;20031;-61
2023/06/15 04:28:58;;;;;;;8.25;5.82;;;15.70;99.90;;;;;;5059231;28;20560;-61
2023/06/15 04:31:24;;;;;;;9.40;6.35;;;15.70;99.90;;;;;;5061036;28;20038;-61
2023/06/15 04:33:52;;;;;;;14.18;6.20;;;15.90;99.90;;;;;;5066054;28;20044;-61
2023/06/15 04:36:18;;;;;;;12.82;6.28;;;15.90;99.90;;;;;;5054606;28;20650;-61
2023/06/15 04:38:48;;;;;;;10.60;6.00;;;16.00;99.90;;;;;;5058148;28;20029;-61
2023/06/15 04:41:14;;;;;;;9.77;6.32;;;16.00;99.90;;;;;;5061950;28;20417;-61
2023/06/15 04:43:40;;;;;;;11.82;5.80;;;16.20;99.90;;;;;;5060900;28;20477;-62
2023/06/15 04:46:06;;;;;;;8.95;6.13;;;16.30;99.90;;;;;;5060683;28;20037;-62
2023/06/15 04:48:32;;;;;;;13.88;6.55;;;16.40;99.90;;;;;;5061352;28;20112;-62
2023/06/15 04:50:59;;;;;;;15.30;7.22;;;16.50;99.90;;;;;;5061976;28;20054;-65
2023/06/15 04:53:25;;;;;;;14.52;7.28;;;16.70;99.90;;;;;;5053517;28;20271;-66
2023/06/15 04:55:51;;;;;;;14.23;7.65;;;16.80;99.90;;;;;;5056304;28;20086;-67
2023/06/15 04:58:17;;;;;;;11.75;7.10;;;17.00;99.90;;;;;;5058779;28;20467;-66
2023/06/15 05:00:43;;;;;;;12.52;6.55;;;17.10;99.90;;;;;;5058725;28;20041;-66
2023/06/15 05:03:11;;;;;;;14.23;7.30;;;17.20;99.90;;;;;;5054885;28;20041;-66
2023/06/15 05:05:36;;;;;;;13.25;7.05;;;17.20;99.90;;;;;;5057908;28;20473;-66
2023/06/15 05:08:02;;;;;;;13.00;7.15;;;17.30;99.90;;;;;;5062454;28;20047;-65
2023/06/15 05:10:28;;;;;;;12.10;6.88;;;17.40;99.90;;;;;;5053754;28;20558;-65
2023/06/15 05:12:54;;;;;;;12.38;6.95;;;17.50;99.90;;;;;;5060606;28;20040;-67
2023/06/15 05:15:20;;;;;;;13.93;6.60;;;17.60;99.90;;;;;;5054467;28;20469;-65
2023/06/15 05:17:46;;;;;;;14.45;7.93;;;17.70;99.90;;;;;;5062159;28;20048;-66
2023/06/15 05:20:13;;;;;;;14.15;7.40;;;17.90;99.90;;;;;;5057214;28;20447;-65
2023/06/15 05:22:39;;;;;;;14.73;7.43;;;17.90;99.90;;;;;;5058568;28;20047;-65
2023/06/15 05:25:06;;;;;;;13.75;7.28;;;18.10;99.90;;;;;;5055428;28;20402;-65
2023/06/15 05:27:35;;;;;;;14.90;7.43;;;18.10;99.90;;;;;;5062678;28;20067;-65
2023/06/15 05:30:01;;;;;;;13.43;7.30;;;18.30;99.90;;;;;;5057666;28;20057;-65
2023/06/15 05:32:29;;;;;;;11.38;6.60;;;18.50;99.90;;;;;;5054448;28;20045;-65
2023/06/15 05:34:55;;;;;;;14.05;7.72;;;18.50;99.90;;;;;;5055790;28;20044;-62
2023/06/15 05:37:20;;;;;;;14.20;7.63;;;18.80;99.90;;;;;;5057845;28;20144;-62
2023/06/15 05:39:46;;;;;;;14.38;8.82;;;18.60;99.90;;;;;;5055166;28;20130;-65
2023/06/15 05:42:11;;;;;;;15.77;7.53;;;18.70;99.90;;;;;;5056905;28;20029;-65
2023/06/15 05:44:37;;;;;;;17.77;7.40;;;18.70;99.90;;;;;;5054532;28;20036;-66
2023/06/15 05:47:03;;;;;;;12.65;6.95;;;18.90;99.90;;;;;;5058928;28;20132;-64
2023/06/15 05:49:29;;;;;;;13.00;6.10;;;18.90;99.90;;;;;;5060893;28;20101;-66
2023/06/15 05:51:55;;;;;;;12.25;6.38;;;19.60;99.90;;;;;;5062763;28;20036;-65
2023/06/15 05:54:20;;;;;;;10.40;6.20;;;19.20;99.90;;;;;;5055680;28;20060;-65
2023/06/15 05:56:46;;;;;;;10.05;5.85;;;19.50;99.90;;;;;;5058595;28;20040;-65
2023/06/15 05:59:11;;;;;;;14.23;6.70;;;19.60;99.90;;;;;;5056091;28;20086;-65
2023/06/15 06:01:37;;;;;;;12.30;6.68;;;19.60;99.90;;;;;;5050383;28;20247;-66
2023/06/15 06:04:02;;;;;;;9.40;6.50;;;19.70;99.90;;;;;;5053126;28;20409;-64
2023/06/15 06:06:28;;;;;;;13.25;6.43;;;19.70;99.90;;;;;;5056620;28;20036;-58
2023/06/15 06:08:53;;;;;;;13.18;7.20;;;19.90;99.90;;;;;;5061347;28;20045;-56
2023/06/15 06:11:19;;;;;;;10.77;6.40;;;20.00;99.90;;;;;;5051880;28;20037;-56
2023/06/15 06:13:44;;;;;;;11.38;5.78;;;20.10;99.90;;;;;;5063339;28;20040;-56
2023/06/15 06:16:10;;;;;;;14.65;6.50;;;20.30;99.90;;;;;;5054337;28;20108;-56
2023/06/15 06:18:36;;;;;;;8.25;5.55;;;20.40;99.90;;;;;;5057911;28;20142;-56
2023/06/15 06:21:01;;;;;;;10.00;5.28;;;20.40;99.90;;;;;;5053818;28;20024;-57
2023/06/15 06:23:27;;;;;;;8.95;5.32;;;20.60;99.90;;;;;;5060666;28;20028;-58
2023/06/15 06:25:52;;;;;;;10.65;5.30;;;20.50;99.90;;;;;;5063970;28;20147;-56
2023/06/15 06:28:18;;;;;;;12.38;5.72;;;20.50;99.90;;;;;;5057197;28;20062;-56
2023/06/15 06:30:43;;;;;;;12.82;4.97;;;20.70;99.90;;;;;;5055076;28;20036;-56
2023/06/15 06:33:09;;;;;;;9.57;4.53;;;20.70;99.90;;;;;;5064544;28;20111;-55
2023/06/15 06:35:35;;;;;;;10.98;4.65;;;20.80;99.90;;;;;;5061479;28;20052;-55
2023/06/15 06:38:00;;;;;;;8.85;4.50;;;20.80;99.90;;;;;;5064498;28;20469;-55
2023/06/15 06:40:26;;;;;;;5.47;4.05;;;21.00;99.90;;;;;;5057966;28;20037;-55
2023/06/15 06:42:52;;;;;;;11.75;4.50;;;21.20;99.90;;;;;;5056167;28;20041;-55
2023/06/15 06:45:17;;;;;;;8.23;4.22;;;21.40;99.90;;;;;;5058752;28;20208;-55
2023/06/15 06:47:43;;;;;;;10.68;4.47;;;21.10;99.90;;;;;;5061338;28;20064;-56
2023/06/15 06:50:08;;;;;;;13.70;4.18;;;21.50;99.90;;;;;;5062347;28;20048;-55
2023/06/15 06:52:34;;;;;;;12.20;4.18;;;21.50;99.90;;;;;;5059456;28;20155;-55
2023/06/15 06:55:00;;;;;;;9.35;4.45;;;21.40;99.90;;;;;;5060983;28;20036;-55
2023/06/15 06:57:25;;;;;;;8.10;4.60;;;21.50;99.90;;;;;;5053876;28;20044;-55
2023/06/15 06:59:51;;;;;;;12.85;5.03;;;21.40;99.90;;;;;;5055840;28;20037;-55
2023/06/15 07:02:16;;;;;;;11.60;4.40;;;21.60;99.90;;;;;;5058316;28;20040;-55
2023/06/15 07:04:42;;;;;;;8.07;4.30;;;21.50;99.90;;;;;;5060239;28;20479;-55
2023/06/15 07:07:07;;;;;;;10.52;4.28;;;21.60;99.90;;;;;;5063608;28;20126;-55
2023/06/15 07:09:34;;;;;;;9.75;4.18;;;;;;;;;;5064565;28;20048;-55
2023/06/15 07:12:00;;;;;;;12.38;4.53;;;21.80;99.90;;;;;;5058217;28;20121;-55
2023/06/15 07:14:26;;;;;;;7.50;4.20;;;22.20;99.90;;;;;;5055988;28;20252;-55
2023/06/15 07:16:52;;;;;;;10.32;4.20;;;22.20;99.90;;;;;;5059901;28;20553;-56
2023/06/15 07:19:17;;;;;;;9.10;3.28;;;22.40;99.90;;;;;;5055719;28;20108;-55
2023/06/15 07:21:43;;;;;;;8.93;3.85;;;22.50;99.90;;;;;;5064673;28;20373;-55
2023/06/15 07:24:08;;;;;;;10.93;3.55;;;22.50;99.90;;;;;;5060969;28;20029;-59
2023/06/15 07:26:34;;;;;;;7.82;3.53;;;22.60;99.90;;;;;;5064816;28;20484;-55
2023/06/15 07:29:00;;;;;;;8.73;3.20;;;22.70;99.90;;;;;;5065908;28;20322;-55
2023/06/15 07:31:25;;;;;;;8.10;3.30;;;22.70;99.90;;;;;;5060634;28;20031;-55
2023/06/15 07:33:53;;;;;;;8.27;3.38;;;23.70;99.90;;;;;;5065036;28;20438;-55
2023/06/15 07:36:19;;;;;;;10.27;3.00;;;22.90;99.90;;;;;;5059874;28;20032;-55
2023/06/15 07:38:45;;;;;;;7.90;3.50;;;22.90;99.90;;;;;;5064418;28;20048;-55
2023/06/15 07:41:11;;;;;;;6.57;3.40;;;23.00;99.90;;;;;;5057187;28;20036;-55
2023/06/15 07:43:36;;;;;;;6.53;3.35;;;23.10;99.90;;;;;;5066066;28;20037;-56
2023/06/15 07:46:02;;;;;;;7.05;3.10;;;22.30;99.80;;;;;;5059530;28;20396;-55
2023/06/15 07:48:27;;;;;;;6.13;3.42;;;23.00;97.30;;;;;;5058967;28;20025;-55
2023/06/15 07:50:53;;;;;;;7.80;3.50;;;23.00;99.90;;;;;;5059906;28;20459;-55
2023/06/15 07:53:18;;;;;;;8.68;3.80;;;23.30;99.90;;;;;;5058638;28;20119;-55
2023/06/15 07:55:44;;;;;;;8.45;3.63;;;23.20;99.00;;;;;;5062578;28;20077;-56
2023/06/15 07:58:10;;;;;;;9.95;3.47;;;23.50;99.90;;;;;;5062431;28;20082;-55
2023/06/15 08:00:36;;;;;;;7.35;3.00;;;23.40;96.60;;;;;;5057197;28;20041;-58
2023/06/15 08:03:01;;;;;;;6.00;3.30;;;23.40;99.50;;;;;;5061533;28;20042;-55
2023/06/15 08:05:27;;;;;;;11.25;3.65;;;23.50;99.40;;;;;;5062261;28;20049;-56
2023/06/15 08:07:52;;;;;;;6.68;3.42;;;23.60;99.50;;;;;;5063602;28;20036;-55
2023/06/15 08:10:18;;;;;;;5.70;3.25;;;23.50;93.90;;;;;;5062227;28;20037;-55
2023/06/15 08:12:43;;;;;;;15.82;4.10;;;23.50;97.90;;;;;;5061730;28;20060;-55
2023/06/15 08:15:09;;;;;;;11.70;3.70;;;23.60;92.10;;;;;;5062914;28;20083;-55
2023/06/15 08:17:35;;;;;;;10.43;3.78;;;23.20;91.90;;;;;;5062040;28;20041;-55
2023/06/15 08:20:05;;;;;;;9.80;3.63;;;23.30;93.90;;;;;;5060465;28;20110;-56
2023/06/15 08:22:30;;;;;;;9.65;3.60;;;23.70;95.20;;;;;;5061456;28;20455;-56
2023/06/15 08:24:56;;;;;;;5.78;3.25;;;23.90;94.00;;;;;;5063717;28;20036;-56
2023/06/15 08:27:21;;;;;;;6.63;3.20;;;23.90;91.00;;;;;;5058917;28;20067;-56
2023/06/15 08:29:48;;;;;;;8.40;3.33;;;24.10;93.00;;;;;;5059258;28;20029;-56
2023/06/15 08:32:14;;;;;;;9.18;3.58;;;24.20;96.80;;;;;;5059542;28;20041;-56
2023/06/15 08:34:44;;;;;;;7.00;3.13;;;24.20;88.60;;;;;;5058328;28;20098;-55
2023/06/15 08:37:11;;;;;;;6.53;3.67;;;24.20;87.00;;;;;;5061592;28;20064;-56
2023/06/15 08:39:38;;;;;;;9.88;3.33;;;24.30;92.00;;;;;;5059743;28;20476;-55
2023/06/15 08:42:04;;;;;;;8.77;3.40;;;24.20;89.50;;;;;;5059116;28;20036;-58
2023/06/15 08:44:31;;;;;;;8.75;3.00;;;24.20;87.40;;;;;;5059014;28;20040;-55
2023/06/15 08:47:02;;;;;;;7.28;3.22;;;24.40;90.70;;;;;;5060755;28;20040;-56
2023/06/15 08:49:28;;;;;;;9.23;3.70;;;24.50;87.40;;;;;;5063365;28;20075;-56
2023/06/15 08:51:55;;;;;;;5.70;3.22;;;24.40;87.40;;;;;;5062247;28;20048;-56
2023/06/15 08:54:22;;;;;;;11.35;4.20;;;24.50;90.80;;;;;;5056961;28;20040;-56
2023/06/15 08:56:48;;;;;;;11.27;4.00;;;24.30;82.40;;;;;;5057349;28;20440;-58
2023/06/15 08:59:13;;;;;;;11.15;3.97;;;24.40;86.50;;;;;;5056814;28;20048;-56
2023/06/15 09:01:41;;;;;;;6.43;3.75;;;24.50;83.70;;;;;;5057834;28;20043;-56
2023/06/15 09:04:08;;;;;;;9.50;3.75;;;23.80;80.70;;;;;;5056845;28;20368;-55
2023/06/15 09:06:36;;;;;;;10.27;4.22;;;24.10;81.00;;;;;;5057571;28;20033;-67
2023/06/15 09:09:03;;;;;;;19.98;12.35;;;24.50;89.30;;;;;;5062031;28;20464;-65
2023/06/15 09:11:29;;;;;;;11.45;3.88;;;24.10;85.10;;;;;;5056786;28;20400;-61
2023/06/15 09:13:55;;;;;;;7.65;3.53;;;24.00;90.30;;;;;;5054587;28;20040;-61
2023/06/15 09:16:21;;;;;;;8.45;3.78;;;24.00;91.30;;;;;;5061290;28;20025;-61
2023/06/15 09:18:51;;;;;;;12.35;4.00;;;23.80;90.30;;;;;;5057958;28;20036;-61
2023/06/15 09:21:18;;;;;;;7.45;3.58;;;24.50;85.50;;;;;;5057097;28;20033;-61
2023/06/15 09:23:47;;;;;;;6.70;3.60;;;24.20;76.00;;;;;;5062028;28;20025;-60
2023/06/15 09:26:23;;;;;;;13.65;4.03;;;24.10;80.10;;;;;;5059085;28;20564;-60
2023/06/15 09:28:49;;;;;;;8.32;3.35;;;24.10;86.50;;;;;;5066175;28;20033;-61
2023/06/15 09:31:32;;;;;;;7.05;3.50;;;24.40;85.00;;;;;;5062244;28;20033;-60
2023/06/15 09:34:05;;;;;;;7.95;3.85;;;24.20;75.40;;;;;;5063000;28;20056;-60
2023/06/15 09:36:35;;;;;;;7.65;3.70;;;24.10;74.30;;;;;;5059893;28;20037;-60
2023/06/15 09:39:02;;;;;;;7.70;3.50;;;24.00;76.20;;;;;;5061677;28;20044;-60
2023/06/15 09:41:28;;;;;;;8.77;3.72;;;24.10;78.10;;;;;;5060165;28;20071;-60
2023/06/15 09:43:53;;;;;;;7.50;3.75;;;24.20;87.10;;;;;;5061849;28;20057;-60
2023/06/15 09:46:20;;;;;;;14.30;3.97;;;24.00;85.60;;;;;;5059276;28;20041;-60
2023/06/15 09:48:47;;;;;;;9.15;4.15;;;24.20;73.00;;;;;;5061115;28;20030;-60
2023/06/15 09:51:15;;;;;;;9.35;3.78;;;24.30;77.60;;;;;;5066112;28;20037;-60
2023/06/15 09:53:43;;;;;;;8.88;3.58;;;24.40;81.60;;;;;;5066977;28;20044;-60
2023/06/15 09:56:10;;;;;;;9.38;4.28;;;24.40;80.80;;;;;;5065243;28;20041;-60
2023/06/15 09:58:36;;;;;;;5.85;3.67;;;24.10;86.00;;;;;;5064836;27;20045;-60
2023/06/15 10:01:04;;;;;;;8.32;3.60;;;24.10;91.10;;;;;;5064074;28;20032;-60
2023/06/15 10:03:33;;;;;;;8.70;3.70;;;24.10;86.90;;;;;;5061318;28;20028;-61
2023/06/15 10:06:22;;;;;;;8.27;3.78;;;24.20;79.20;;;;;;5054061;28;20039;-58
2023/06/15 10:08:52;;;;;;;10.65;4.00;;;24.10;81.10;;;;;;5058952;28;20516;-57
2023/06/15 10:11:20;;;;;;;8.32;3.55;;;24.20;92.50;;;;;;5063970;28;20124;-58
2023/06/15 10:13:54;;;;;;;5.22;3.20;;;24.50;76.80;;;;;;5055357;27;20407;-57
2023/06/15 10:16:20;;;;;;;6.82;3.42;;;24.60;75.80;;;;;;5064285;28;20411;-57
2023/06/15 10:18:54;;;;;;;6.68;3.67;;;24.80;76.80;;;;;;5071034;28;20077;-63
2023/06/15 10:21:26;;;;;;;9.10;3.55;;;25.10;72.00;;;;;;5062517;28;20544;-63
2023/06/15 10:23:55;;;;;;;10.48;3.65;;;25.20;72.60;;;;;;5064702;28;20047;-63
2023/06/15 10:26:21;;;;;;;7.30;3.70;;;25.10;76.90;;;;;;5057833;28;20036;-63
2023/06/15 10:28:53;;;;;;;9.65;3.75;;;25.10;75.70;;;;;;5054936;28;20516;-63
2023/06/15 10:31:30;;;;;;;7.47;3.70;;;24.90;73.60;;;;;;5060442;28;20496;-63
2023/06/15 10:34:05;;;;;;;13.48;4.28;;;24.50;78.70;;;;;;5061245;28;20438;-63
2023/06/15 10:36:50;;;;;;;10.02;4.20;;;25.00;90.40;;;;;;5061545;28;20024;-62
2023/06/15 10:39:29;;;;;;;9.18;3.78;;;24.80;79.90;;;;;;5060333;28;20036;-62
2023/06/15 10:41:58;;;;;;;10.52;4.15;;;25.00;72.10;;;;;;5065395;28;20392;-62
2023/06/15 10:44:31;;;;;;;12.07;4.30;;;24.80;66.20;;;;;;5061103;28;20036;-63
2023/06/15 10:47:20;;;;;;;12.35;4.50;;;24.90;66.10;;;;;;5065983;28;20477;-64
2023/06/15 10:49:53;;;;;;;9.00;4.63;;;24.80;65.40;;;;;;5063468;28;20048;-63
2023/06/15 10:52:19;;;;;;;16.92;5.30;;;24.60;77.60;;;;;;5062210;28;20037;-62
2023/06/15 10:54:46;;;;;;;7.60;4.00;;;25.00;81.10;;;;;;5067475;28;20035;-63
2023/06/15 10:57:16;;;;;;;10.38;4.25;;;24.90;67.40;;;;;;5064637;28;20041;-65
2023/06/15 10:59:51;;;;;;;8.63;4.55;;;25.00;72.50;;;;;;5063388;28;20143;-66
2023/06/15 11:02:28;;;;;;;10.13;4.03;;;24.90;73.20;;;;;;5063192;28;20040;-65
2023/06/15 11:05:03;;;;;;;6.55;3.60;;;24.90;69.70;;;;;;5064526;28;20040;-63
2023/06/15 11:07:34;;;;;;;9.30;3.80;;;24.80;73.20;;;;;;5061205;28;20380;-64
2023/06/15 11:10:02;;;;;;;7.53;3.83;;;24.80;80.90;;;;;;5060570;28;20074;-63
2023/06/15 11:12:38;;;;;;;5.68;3.58;;;25.20;72.80;;;;;;5055759;28;20539;-62
2023/06/15 11:15:05;;;;;;;9.32;4.00;;;25.70;72.90;;;;;;5062513;28;20525;-62
2023/06/15 11:17:52;;;;;;;6.72;3.50;;;25.80;64.20;;;;;;5057641;28;20123;-64
2023/06/15 11:20:42;;;;;;;6.40;3.40;;;25.40;64.50;;;;;;5064179;28;20041;-62
2023/06/15 11:23:19;;;;;;;9.13;3.58;;;25.30;66.50;;;;;;5061511;28;20717;-62
2023/06/15 11:25:46;;;;;;;8.88;3.45;;;24.90;74.80;;;;;;5055411;28;20040;-63
2023/06/15 11:28:15;;;;;;;5.35;3.10;;;24.90;72.20;;;;;;5059494;28;20116;-62
2023/06/15 11:30:41;;;;;;;8.15;3.88;;;25.00;70.10;;;;;;5057834;28;20036;-63
2023/06/15 11:33:13;;;;;;;9.43;3.40;;;24.90;67.80;;;;;;5060220;28;20040;-62
2023/06/15 11:35:40;;;;;;;11.70;3.73;;;24.90;75.80;;;;;;5055980;28;20044;-64
2023/06/15 11:38:09;;;;;;;8.15;3.50;;;24.80;72.00;;;;;;5063615;28;20290;-64
2023/06/15 11:40:35;;;;;;;7.22;3.75;;;24.80;75.20;;;;;;5054460;28;20430;-62
2023/06/15 11:43:05;;;;;;;5.20;3.65;;;25.80;79.50;;;;;;5056256;28;20033;-62
2023/06/15 11:45:34;;;;;;;7.07;3.55;;;25.30;77.20;;;;;;5056955;28;20119;-63
2023/06/15 11:48:00;;;;;;;10.00;3.47;;;25.00;75.90;;;;;;5064182;28;20054;-63
2023/06/15 11:50:26;;;;;;;6.28;3.83;;;25.30;69.50;;;;;;5053356;28;20032;-62
2023/06/15 11:52:51;;;;;;;12.00;3.65;;;25.40;77.70;;;;;;5049712;28;20029;-63
2023/06/15 11:55:17;;;;;;;7.10;3.83;;;25.70;68.20;;;;;;5057126;28;20047;-62
2023/06/15 11:57:43;;;;;;;6.10;3.42;;;25.80;59.50;;;;;;5057865;28;20032;-62
2023/06/15 12:00:10;;;;;;;7.55;3.28;;;25.60;59.30;;;;;;5057417;28;20047;-63
2023/06/15 12:02:36;;;;;;;6.03;3.40;;;25.60;56.60;;;;;;5057924;28;20068;-63
2023/06/15 12:05:02;;;;;;;6.63;3.80;;;25.60;56.00;;;;;;5057931;28;20513;-61
2023/06/15 12:07:35;;;;;;;6.95;3.50;;;25.70;56.10;;;;;;5055049;28;20145;-62
2023/06/15 12:10:03;;;;;;;;;;;25.90;56.60;;;;;;5060822;28;20029;-62
2023/06/15 12:12:30;;;;;;;7.18;3.10;;;25.70;55.60;;;;;;5060859;28;19966;-63
2023/06/15 12:14:56;;;;;;;6.13;2.90;;;25.90;56.70;;;;;;5056091;28;20502;-62
2023/06/15 12:17:33;;;;;;;7.18;3.17;;;25.80;55.20;;;;;;5061646;28;20060;-62
2023/06/15 12:20:09;;;;;;;7.43;3.53;;;25.80;55.70;;;;;;5061933;28;20147;-62
2023/06/15 12:22:36;;;;;;;6.28;3.13;;;25.70;55.40;;;;;;5054268;28;20040;-63
2023/06/15 12:25:03;;;;;;;6.68;3.15;;;25.80;54.90;;;;;;5053827;28;20451;-62
2023/06/15 12:27:31;;;;;;;4.10;2.92;;;25.90;56.00;;;;;;5053592;28;20033;-62
2023/06/15 12:30:17;;;;;;;5.53;3.47;;;25.90;62.70;;;;;;5060365;28;20072;-63
2023/06/15 12:32:47;;;;;;;5.72;3.60;;;25.80;60.20;;;;;;5061461;28;20442;-62
2023/06/15 12:35:26;;;;;;;5.68;3.38;;;25.80;62.20;;;;;;5059663;28;20032;-63
2023/06/15 12:37:54;;;;;;;6.45;3.38;;;25.90;62.80;;;;;;5060579;28;20133;-63
2023/06/15 12:40:21;;;;;;;5.18;3.45;;;25.70;58.80;;;;;;5060143;28;20044;-63
2023/06/15 12:42:56;;;;;;;9.02;3.47;;;25.70;62.10;;;;;;5062514;28;20052;-62
2023/06/15 12:45:22;;;;;;;6.07;3.33;;;25.30;64.20;;;;;;5060950;28;20041;-64
2023/06/15 12:47:47;;;;;;;5.43;3.00;;;25.50;66.00;;;;;;5060965;28;20040;-64